sensor_id;sensor_type;location;lat;lon;timestamp;P1;durP1;ratioP1;P2;durP2;ratioP2
30247;SDS011;17063;50.892;4.702;2023-07-30T00:01:39;7.73;;;2.20;;
30247;SDS011;17063;50.892;4.702;2023-07-30T00:04:11;6.77;;;1.80;;
30247;SDS011;17063;50.892;4.702;2023-07-30T00:06:38;7.00;;;2.03;;
30247;SDS011;17063;50.892;4.702;2023-07-30T00:09:13;7.17;;;2.30;;
30247;SDS011;17063;50.892;4.702;2023-07-30T00:11:40;4.57;;;1.80;;
30247;SDS011;17063;50.892;4.702;2023-07-30T00:14:07;5.97;;;2.23;;
30247;SDS011;17063;50.892;4.702;2023-07-30T00:16:34;4.00;;;2.10;;
30247;SDS011;17063;50.892;4.702;2023-07-30T00:19:01;5.70;;;2.00;;
30247;SDS011;17063;50.892;4.702;2023-07-30T00:21:28;4.67;;;1.80;;
30247;SDS011;17063;50.892;4.702;2023-07-30T00:23:55;6.17;;;1.90;;
30247;SDS011;17063;50.892;4.702;2023-07-30T00:26:22;4.20;;;1.70;;
30247;SDS011;17063;50.892;4.702;2023-07-30T00:28:53;10.67;;;2.20;;
30247;SDS011;17063;50.892;4.702;2023-07-30T00:31:19;5.43;;;2.00;;
30247;SDS011;17063;50.892;4.702;2023-07-30T00:33:46;8.63;;;2.23;;
30247;SDS011;17063;50.892;4.702;2023-07-30T00:36:13;8.93;;;2.67;;
30247;SDS011;17063;50.892;4.702;2023-07-30T00:38:41;10.50;;;2.30;;
30247;SDS011;17063;50.892;4.702;2023-07-30T00:41:08;3.87;;;1.97;;
30247;SDS011;17063;50.892;4.702;2023-07-30T00:43:35;7.83;;;2.40;;
30247;SDS011;17063;50.892;4.702;2023-07-30T00:46:02;8.93;;;2.60;;
30247;SDS011;17063;50.892;4.702;2023-07-30T00:48:29;8.20;;;1.90;;
30247;SDS011;17063;50.892;4.702;2023-07-30T00:50:57;6.37;;;2.07;;
30247;SDS011;17063;50.892;4.702;2023-07-30T00:53:26;10.90;;;2.50;;
30247;SDS011;17063;50.892;4.702;2023-07-30T00:55:55;15.93;;;3.03;;
30247;SDS011;17063;50.892;4.702;2023-07-30T00:58:23;11.93;;;2.47;;
30247;SDS011;17063;50.892;4.702;2023-07-30T01:00:52;9.43;;;2.50;;
30247;SDS011;17063;50.892;4.702;2023-07-30T01:03:26;12.53;;;2.23;;
30247;SDS011;17063;50.892;4.702;2023-07-30T01:05:54;12.00;;;2.37;;
30247;SDS011;17063;50.892;4.702;2023-07-30T01:08:23;10.07;;;2.27;;
30247;SDS011;17063;50.892;4.702;2023-07-30T01:11:00;8.90;;;2.10;;
30247;SDS011;17063;50.892;4.702;2023-07-30T01:13:28;7.43;;;2.00;;
30247;SDS011;17063;50.892;4.702;2023-07-30T01:15:55;10.23;;;2.23;;
30247;SDS011;17063;50.892;4.702;2023-07-30T01:18:25;6.97;;;2.50;;
30247;SDS011;17063;50.892;4.702;2023-07-30T01:20:53;5.63;;;2.03;;
30247;SDS011;17063;50.892;4.702;2023-07-30T01:23:20;8.37;;;2.13;;
30247;SDS011;17063;50.892;4.702;2023-07-30T01:25:46;10.77;;;2.20;;
30247;SDS011;17063;50.892;4.702;2023-07-30T01:28:16;7.70;;;1.70;;
30247;SDS011;17063;50.892;4.702;2023-07-30T01:30:44;8.67;;;2.20;;
30247;SDS011;17063;50.892;4.702;2023-07-30T01:33:16;10.90;;;2.60;;
30247;SDS011;17063;50.892;4.702;2023-07-30T01:35:43;13.23;;;2.97;;
30247;SDS011;17063;50.892;4.702;2023-07-30T01:38:11;9.23;;;2.40;;
30247;SDS011;17063;50.892;4.702;2023-07-30T01:40:39;8.57;;;2.20;;
30247;SDS011;17063;50.892;4.702;2023-07-30T01:43:06;16.73;;;2.40;;
30247;SDS011;17063;50.892;4.702;2023-07-30T01:45:40;13.47;;;2.20;;
30247;SDS011;17063;50.892;4.702;2023-07-30T01:48:10;8.93;;;2.10;;
30247;SDS011;17063;50.892;4.702;2023-07-30T01:50:40;7.17;;;1.90;;
30247;SDS011;17063;50.892;4.702;2023-07-30T01:53:08;11.37;;;2.23;;
30247;SDS011;17063;50.892;4.702;2023-07-30T01:55:36;6.60;;;2.37;;
30247;SDS011;17063;50.892;4.702;2023-07-30T01:58:04;12.90;;;2.37;;
30247;SDS011;17063;50.892;4.702;2023-07-30T02:00:31;9.53;;;2.57;;
30247;SDS011;17063;50.892;4.702;2023-07-30T02:03:04;10.07;;;2.37;;
30247;SDS011;17063;50.892;4.702;2023-07-30T02:05:33;15.07;;;2.63;;
30247;SDS011;17063;50.892;4.702;2023-07-30T02:08:03;8.53;;;2.00;;
30247;SDS011;17063;50.892;4.702;2023-07-30T02:10:33;7.60;;;2.33;;
30247;SDS011;17063;50.892;4.702;2023-07-30T02:13:00;10.63;;;2.00;;
30247;SDS011;17063;50.892;4.702;2023-07-30T02:15:27;8.97;;;2.00;;
30247;SDS011;17063;50.892;4.702;2023-07-30T02:17:54;10.17;;;2.33;;
30247;SDS011;17063;50.892;4.702;2023-07-30T02:20:21;8.47;;;2.10;;
30247;SDS011;17063;50.892;4.702;2023-07-30T02:22:48;9.43;;;1.97;;
30247;SDS011;17063;50.892;4.702;2023-07-30T02:25:15;10.90;;;1.90;;
30247;SDS011;17063;50.892;4.702;2023-07-30T02:27:42;6.97;;;2.03;;
30247;SDS011;17063;50.892;4.702;2023-07-30T02:30:09;11.47;;;2.07;;
30247;SDS011;17063;50.892;4.702;2023-07-30T02:32:37;10.80;;;2.00;;
30247;SDS011;17063;50.892;4.702;2023-07-30T02:35:04;8.13;;;2.10;;
30247;SDS011;17063;50.892;4.702;2023-07-30T02:37:31;12.07;;;2.23;;
30247;SDS011;17063;50.892;4.702;2023-07-30T02:39:58;10.23;;;2.40;;
30247;SDS011;17063;50.892;4.702;2023-07-30T02:42:26;8.00;;;2.40;;
30247;SDS011;17063;50.892;4.702;2023-07-30T02:44:52;9.77;;;1.90;;
30247;SDS011;17063;50.892;4.702;2023-07-30T02:47:19;6.57;;;2.07;;
30247;SDS011;17063;50.892;4.702;2023-07-30T02:49:46;15.53;;;2.30;;
30247;SDS011;17063;50.892;4.702;2023-07-30T02:52:13;6.33;;;2.20;;
30247;SDS011;17063;50.892;4.702;2023-07-30T02:54:40;9.97;;;2.30;;
30247;SDS011;17063;50.892;4.702;2023-07-30T02:57:07;14.53;;;2.60;;
30247;SDS011;17063;50.892;4.702;2023-07-30T02:59:34;8.73;;;2.23;;
30247;SDS011;17063;50.892;4.702;2023-07-30T03:02:05;11.13;;;2.00;;
30247;SDS011;17063;50.892;4.702;2023-07-30T03:04:32;14.30;;;2.57;;
30247;SDS011;17063;50.892;4.702;2023-07-30T03:07:00;13.13;;;2.60;;
30247;SDS011;17063;50.892;4.702;2023-07-30T03:09:27;11.80;;;2.87;;
30247;SDS011;17063;50.892;4.702;2023-07-30T03:11:54;10.13;;;2.10;;
30247;SDS011;17063;50.892;4.702;2023-07-30T03:14:21;8.00;;;2.30;;
30247;SDS011;17063;50.892;4.702;2023-07-30T03:16:48;7.60;;;2.20;;
30247;SDS011;17063;50.892;4.702;2023-07-30T03:19:15;12.57;;;2.17;;
30247;SDS011;17063;50.892;4.702;2023-07-30T03:21:42;8.37;;;2.13;;
30247;SDS011;17063;50.892;4.702;2023-07-30T03:24:09;6.07;;;2.10;;
30247;SDS011;17063;50.892;4.702;2023-07-30T03:26:36;8.53;;;2.37;;
30247;SDS011;17063;50.892;4.702;2023-07-30T03:29:03;11.00;;;1.90;;
30247;SDS011;17063;50.892;4.702;2023-07-30T03:31:30;16.47;;;2.57;;
30247;SDS011;17063;50.892;4.702;2023-07-30T03:33:57;8.53;;;2.23;;
30247;SDS011;17063;50.892;4.702;2023-07-30T03:36:24;10.57;;;2.27;;
30247;SDS011;17063;50.892;4.702;2023-07-30T03:38:51;14.10;;;2.40;;
30247;SDS011;17063;50.892;4.702;2023-07-30T03:41:18;10.60;;;2.10;;
30247;SDS011;17063;50.892;4.702;2023-07-30T03:43:46;9.83;;;2.00;;
30247;SDS011;17063;50.892;4.702;2023-07-30T03:46:13;13.83;;;3.33;;
30247;SDS011;17063;50.892;4.702;2023-07-30T03:48:40;12.50;;;2.10;;
30247;SDS011;17063;50.892;4.702;2023-07-30T03:51:07;10.47;;;1.90;;
30247;SDS011;17063;50.892;4.702;2023-07-30T03:53:34;20.43;;;2.60;;
30247;SDS011;17063;50.892;4.702;2023-07-30T03:56:01;9.53;;;1.67;;
30247;SDS011;17063;50.892;4.702;2023-07-30T03:58:28;10.43;;;2.20;;
30247;SDS011;17063;50.892;4.702;2023-07-30T04:00:57;10.33;;;2.10;;
30247;SDS011;17063;50.892;4.702;2023-07-30T04:03:24;13.67;;;2.60;;
30247;SDS011;17063;50.892;4.702;2023-07-30T04:05:51;11.07;;;2.13;;
30247;SDS011;17063;50.892;4.702;2023-07-30T04:08:17;9.63;;;2.50;;
30247;SDS011;17063;50.892;4.702;2023-07-30T04:10:45;13.70;;;3.00;;
30247;SDS011;17063;50.892;4.702;2023-07-30T04:13:11;18.87;;;2.57;;
30247;SDS011;17063;50.892;4.702;2023-07-30T04:15:40;10.57;;;2.10;;
30247;SDS011;17063;50.892;4.702;2023-07-30T04:18:07;8.47;;;2.20;;
30247;SDS011;17063;50.892;4.702;2023-07-30T04:20:34;12.77;;;2.40;;
30247;SDS011;17063;50.892;4.702;2023-07-30T04:23:01;12.07;;;2.30;;
30247;SDS011;17063;50.892;4.702;2023-07-30T04:25:29;9.53;;;2.50;;
30247;SDS011;17063;50.892;4.702;2023-07-30T04:27:56;10.73;;;1.93;;
30247;SDS011;17063;50.892;4.702;2023-07-30T04:30:24;19.10;;;2.80;;
30247;SDS011;17063;50.892;4.702;2023-07-30T04:32:51;10.10;;;2.33;;
30247;SDS011;17063;50.892;4.702;2023-07-30T04:35:18;13.43;;;2.43;;
30247;SDS011;17063;50.892;4.702;2023-07-30T04:37:45;9.90;;;2.13;;
30247;SDS011;17063;50.892;4.702;2023-07-30T04:40:12;9.77;;;2.20;;
30247;SDS011;17063;50.892;4.702;2023-07-30T04:42:39;10.63;;;2.30;;
30247;SDS011;17063;50.892;4.702;2023-07-30T04:45:06;10.10;;;2.07;;
30247;SDS011;17063;50.892;4.702;2023-07-30T04:47:36;17.30;;;2.70;;
30247;SDS011;17063;50.892;4.702;2023-07-30T04:50:03;12.23;;;2.27;;
30247;SDS011;17063;50.892;4.702;2023-07-30T04:52:30;11.00;;;2.23;;
30247;SDS011;17063;50.892;4.702;2023-07-30T04:54:57;10.50;;;2.20;;
30247;SDS011;17063;50.892;4.702;2023-07-30T04:57:25;9.57;;;1.97;;
30247;SDS011;17063;50.892;4.702;2023-07-30T04:59:52;18.57;;;2.60;;
30247;SDS011;17063;50.892;4.702;2023-07-30T05:02:19;10.07;;;2.27;;
30247;SDS011;17063;50.892;4.702;2023-07-30T05:04:47;16.00;;;2.27;;
30247;SDS011;17063;50.892;4.702;2023-07-30T05:07:14;20.13;;;2.70;;
30247;SDS011;17063;50.892;4.702;2023-07-30T05:09:41;14.77;;;2.70;;
30247;SDS011;17063;50.892;4.702;2023-07-30T05:12:07;16.13;;;2.60;;
30247;SDS011;17063;50.892;4.702;2023-07-30T05:14:34;10.30;;;2.47;;
30247;SDS011;17063;50.892;4.702;2023-07-30T05:17:01;13.77;;;2.90;;
30247;SDS011;17063;50.892;4.702;2023-07-30T05:19:29;11.13;;;2.30;;
30247;SDS011;17063;50.892;4.702;2023-07-30T05:21:56;8.70;;;2.37;;
30247;SDS011;17063;50.892;4.702;2023-07-30T05:24:23;13.60;;;2.07;;
30247;SDS011;17063;50.892;4.702;2023-07-30T05:26:49;10.20;;;1.90;;
30247;SDS011;17063;50.892;4.702;2023-07-30T05:29:16;15.17;;;3.13;;
30247;SDS011;17063;50.892;4.702;2023-07-30T05:31:43;15.73;;;2.50;;
30247;SDS011;17063;50.892;4.702;2023-07-30T05:34:10;14.27;;;3.63;;
30247;SDS011;17063;50.892;4.702;2023-07-30T05:36:37;16.27;;;2.50;;
30247;SDS011;17063;50.892;4.702;2023-07-30T05:39:04;12.67;;;2.20;;
30247;SDS011;17063;50.892;4.702;2023-07-30T05:41:31;13.10;;;2.10;;
30247;SDS011;17063;50.892;4.702;2023-07-30T05:43:58;13.93;;;2.60;;
30247;SDS011;17063;50.892;4.702;2023-07-30T05:46:25;14.13;;;2.87;;
30247;SDS011;17063;50.892;4.702;2023-07-30T05:48:52;13.37;;;2.63;;
30247;SDS011;17063;50.892;4.702;2023-07-30T05:51:19;20.70;;;2.87;;
30247;SDS011;17063;50.892;4.702;2023-07-30T05:53:46;13.13;;;2.70;;
30247;SDS011;17063;50.892;4.702;2023-07-30T05:56:13;11.93;;;2.47;;
30247;SDS011;17063;50.892;4.702;2023-07-30T05:58:40;10.43;;;2.53;;
30247;SDS011;17063;50.892;4.702;2023-07-30T06:01:07;10.73;;;2.33;;
30247;SDS011;17063;50.892;4.702;2023-07-30T06:03:34;15.03;;;3.20;;
30247;SDS011;17063;50.892;4.702;2023-07-30T06:06:01;15.33;;;2.47;;
30247;SDS011;17063;50.892;4.702;2023-07-30T06:08:28;16.20;;;2.90;;
30247;SDS011;17063;50.892;4.702;2023-07-30T06:11:00;11.40;;;2.47;;
30247;SDS011;17063;50.892;4.702;2023-07-30T06:13:30;12.07;;;2.50;;
30247;SDS011;17063;50.892;4.702;2023-07-30T06:15:58;14.37;;;2.33;;
30247;SDS011;17063;50.892;4.702;2023-07-30T06:18:25;18.90;;;2.90;;
30247;SDS011;17063;50.892;4.702;2023-07-30T06:20:52;14.57;;;2.87;;
30247;SDS011;17063;50.892;4.702;2023-07-30T06:23:19;16.13;;;2.97;;
30247;SDS011;17063;50.892;4.702;2023-07-30T06:25:47;14.50;;;2.77;;
30247;SDS011;17063;50.892;4.702;2023-07-30T06:28:13;11.20;;;2.70;;
30247;SDS011;17063;50.892;4.702;2023-07-30T06:30:40;20.30;;;2.70;;
30247;SDS011;17063;50.892;4.702;2023-07-30T06:33:07;15.33;;;2.40;;
30247;SDS011;17063;50.892;4.702;2023-07-30T06:35:34;14.73;;;2.40;;
30247;SDS011;17063;50.892;4.702;2023-07-30T06:38:01;11.60;;;2.73;;
30247;SDS011;17063;50.892;4.702;2023-07-30T06:40:28;15.30;;;3.10;;
30247;SDS011;17063;50.892;4.702;2023-07-30T06:42:55;13.17;;;2.37;;
30247;SDS011;17063;50.892;4.702;2023-07-30T06:45:22;12.90;;;2.40;;
30247;SDS011;17063;50.892;4.702;2023-07-30T06:47:49;17.97;;;2.87;;
30247;SDS011;17063;50.892;4.702;2023-07-30T06:50:16;14.23;;;2.83;;
30247;SDS011;17063;50.892;4.702;2023-07-30T06:52:43;16.87;;;3.43;;
30247;SDS011;17063;50.892;4.702;2023-07-30T06:55:10;16.13;;;2.43;;
30247;SDS011;17063;50.892;4.702;2023-07-30T06:57:36;13.30;;;2.37;;
30247;SDS011;17063;50.892;4.702;2023-07-30T07:00:03;12.13;;;2.50;;
30247;SDS011;17063;50.892;4.702;2023-07-30T07:02:31;12.93;;;2.73;;
30247;SDS011;17063;50.892;4.702;2023-07-30T07:05:00;16.00;;;2.70;;
30247;SDS011;17063;50.892;4.702;2023-07-30T07:07:27;15.10;;;2.50;;
30247;SDS011;17063;50.892;4.702;2023-07-30T07:09:54;19.97;;;2.87;;
30247;SDS011;17063;50.892;4.702;2023-07-30T07:12:29;13.30;;;2.57;;
30247;SDS011;17063;50.892;4.702;2023-07-30T07:14:56;12.60;;;3.03;;
30247;SDS011;17063;50.892;4.702;2023-07-30T07:17:25;15.43;;;3.03;;
30247;SDS011;17063;50.892;4.702;2023-07-30T07:19:52;14.60;;;3.10;;
30247;SDS011;17063;50.892;4.702;2023-07-30T07:22:19;12.73;;;2.70;;
30247;SDS011;17063;50.892;4.702;2023-07-30T07:24:46;12.83;;;2.57;;
30247;SDS011;17063;50.892;4.702;2023-07-30T07:27:13;18.37;;;2.70;;
30247;SDS011;17063;50.892;4.702;2023-07-30T07:29:41;14.50;;;2.73;;
30247;SDS011;17063;50.892;4.702;2023-07-30T07:32:08;10.10;;;2.30;;
30247;SDS011;17063;50.892;4.702;2023-07-30T07:34:35;10.70;;;2.90;;
30247;SDS011;17063;50.892;4.702;2023-07-30T07:37:02;12.07;;;2.37;;
30247;SDS011;17063;50.892;4.702;2023-07-30T07:39:30;11.03;;;2.47;;
30247;SDS011;17063;50.892;4.702;2023-07-30T07:41:57;11.73;;;2.37;;
30247;SDS011;17063;50.892;4.702;2023-07-30T07:44:25;11.77;;;2.67;;
30247;SDS011;17063;50.892;4.702;2023-07-30T07:46:52;13.97;;;2.50;;
30247;SDS011;17063;50.892;4.702;2023-07-30T07:49:19;15.00;;;2.43;;
30247;SDS011;17063;50.892;4.702;2023-07-30T07:51:49;12.70;;;2.67;;
30247;SDS011;17063;50.892;4.702;2023-07-30T07:54:18;10.43;;;2.73;;
30247;SDS011;17063;50.892;4.702;2023-07-30T07:56:45;19.83;;;3.40;;
30247;SDS011;17063;50.892;4.702;2023-07-30T07:59:12;11.43;;;2.47;;
30247;SDS011;17063;50.892;4.702;2023-07-30T08:01:41;8.50;;;2.57;;
30247;SDS011;17063;50.892;4.702;2023-07-30T08:04:11;11.83;;;2.50;;
30247;SDS011;17063;50.892;4.702;2023-07-30T08:06:38;10.00;;;2.23;;
30247;SDS011;17063;50.892;4.702;2023-07-30T08:09:05;8.23;;;2.10;;
30247;SDS011;17063;50.892;4.702;2023-07-30T08:11:33;8.83;;;1.90;;
30247;SDS011;17063;50.892;4.702;2023-07-30T08:14:01;8.67;;;2.10;;
30247;SDS011;17063;50.892;4.702;2023-07-30T08:16:28;17.77;;;2.60;;
30247;SDS011;17063;50.892;4.702;2023-07-30T08:18:55;8.13;;;2.10;;
30247;SDS011;17063;50.892;4.702;2023-07-30T08:21:22;11.23;;;2.30;;
30247;SDS011;17063;50.892;4.702;2023-07-30T08:23:49;23.70;;;3.13;;
30247;SDS011;17063;50.892;4.702;2023-07-30T08:26:16;10.93;;;2.00;;
30247;SDS011;17063;50.892;4.702;2023-07-30T08:28:44;36.03;;;4.17;;
30247;SDS011;17063;50.892;4.702;2023-07-30T08:31:13;10.13;;;1.93;;
30247;SDS011;17063;50.892;4.702;2023-07-30T08:33:39;8.10;;;1.97;;
30247;SDS011;17063;50.892;4.702;2023-07-30T08:36:07;11.77;;;2.30;;
30247;SDS011;17063;50.892;4.702;2023-07-30T08:38:33;11.87;;;2.83;;
30247;SDS011;17063;50.892;4.702;2023-07-30T08:41:00;7.33;;;1.90;;
30247;SDS011;17063;50.892;4.702;2023-07-30T08:43:27;9.47;;;2.00;;
30247;SDS011;17063;50.892;4.702;2023-07-30T08:45:54;7.60;;;1.67;;
30247;SDS011;17063;50.892;4.702;2023-07-30T08:48:21;8.40;;;1.90;;
30247;SDS011;17063;50.892;4.702;2023-07-30T08:50:48;7.73;;;1.77;;
30247;SDS011;17063;50.892;4.702;2023-07-30T08:53:16;8.97;;;2.07;;
30247;SDS011;17063;50.892;4.702;2023-07-30T08:55:43;9.43;;;1.90;;
30247;SDS011;17063;50.892;4.702;2023-07-30T08:58:11;8.13;;;1.87;;
30247;SDS011;17063;50.892;4.702;2023-07-30T09:00:38;10.83;;;2.20;;
30247;SDS011;17063;50.892;4.702;2023-07-30T09:03:05;8.40;;;1.90;;
30247;SDS011;17063;50.892;4.702;2023-07-30T09:05:33;9.37;;;2.10;;
30247;SDS011;17063;50.892;4.702;2023-07-30T09:08:00;8.00;;;1.83;;
30247;SDS011;17063;50.892;4.702;2023-07-30T09:10:27;8.57;;;1.93;;
30247;SDS011;17063;50.892;4.702;2023-07-30T09:12:55;7.37;;;1.87;;
30247;SDS011;17063;50.892;4.702;2023-07-30T09:15:31;10.13;;;2.10;;
30247;SDS011;17063;50.892;4.702;2023-07-30T09:17:59;11.37;;;1.73;;
30247;SDS011;17063;50.892;4.702;2023-07-30T09:20:28;8.30;;;1.70;;
30247;SDS011;17063;50.892;4.702;2023-07-30T09:22:58;9.97;;;2.37;;
30247;SDS011;17063;50.892;4.702;2023-07-30T09:25:25;13.10;;;2.43;;
30247;SDS011;17063;50.892;4.702;2023-07-30T09:27:52;8.87;;;1.63;;
30247;SDS011;17063;50.892;4.702;2023-07-30T09:30:23;9.70;;;1.87;;
30247;SDS011;17063;50.892;4.702;2023-07-30T09:32:51;7.40;;;2.03;;
30247;SDS011;17063;50.892;4.702;2023-07-30T09:35:19;5.90;;;1.20;;
30247;SDS011;17063;50.892;4.702;2023-07-30T09:37:47;5.03;;;1.37;;
30247;SDS011;17063;50.892;4.702;2023-07-30T09:40:15;4.20;;;1.40;;
30247;SDS011;17063;50.892;4.702;2023-07-30T09:42:47;12.50;;;2.00;;
30247;SDS011;17063;50.892;4.702;2023-07-30T09:45:20;6.53;;;1.87;;
30247;SDS011;17063;50.892;4.702;2023-07-30T09:47:50;8.70;;;1.70;;
30247;SDS011;17063;50.892;4.702;2023-07-30T09:50:18;6.60;;;1.67;;
30247;SDS011;17063;50.892;4.702;2023-07-30T09:52:45;7.63;;;2.00;;
30247;SDS011;17063;50.892;4.702;2023-07-30T09:55:13;7.73;;;1.63;;
30247;SDS011;17063;50.892;4.702;2023-07-30T09:57:58;6.33;;;1.70;;
30247;SDS011;17063;50.892;4.702;2023-07-30T10:00:51;6.87;;;1.83;;
30247;SDS011;17063;50.892;4.702;2023-07-30T10:03:19;4.97;;;1.90;;
30247;SDS011;17063;50.892;4.702;2023-07-30T10:05:54;5.73;;;1.90;;
30247;SDS011;17063;50.892;4.702;2023-07-30T10:08:29;7.80;;;1.77;;
30247;SDS011;17063;50.892;4.702;2023-07-30T10:10:58;7.03;;;1.70;;
30247;SDS011;17063;50.892;4.702;2023-07-30T10:13:25;9.47;;;2.00;;
30247;SDS011;17063;50.892;4.702;2023-07-30T10:15:53;11.20;;;2.00;;
30247;SDS011;17063;50.892;4.702;2023-07-30T10:18:20;8.47;;;2.10;;
30247;SDS011;17063;50.892;4.702;2023-07-30T10:20:53;14.23;;;2.00;;
30247;SDS011;17063;50.892;4.702;2023-07-30T10:23:26;11.00;;;2.87;;
30247;SDS011;17063;50.892;4.702;2023-07-30T10:25:54;6.27;;;1.60;;
30247;SDS011;17063;50.892;4.702;2023-07-30T10:33:49;6.73;;;2.10;;
30247;SDS011;17063;50.892;4.702;2023-07-30T10:36:18;6.60;;;1.70;;
30247;SDS011;17063;50.892;4.702;2023-07-30T10:38:57;7.60;;;1.97;;
30247;SDS011;17063;50.892;4.702;2023-07-30T10:41:23;8.63;;;2.37;;
30247;SDS011;17063;50.892;4.702;2023-07-30T10:43:50;8.07;;;2.10;;
30247;SDS011;17063;50.892;4.702;2023-07-30T10:46:18;9.27;;;2.00;;
30247;SDS011;17063;50.892;4.702;2023-07-30T10:48:46;12.00;;;2.30;;
30247;SDS011;17063;50.892;4.702;2023-07-30T10:51:15;9.43;;;2.73;;
30247;SDS011;17063;50.892;4.702;2023-07-30T10:53:46;8.47;;;2.10;;
30247;SDS011;17063;50.892;4.702;2023-07-30T10:56:15;10.37;;;2.03;;
30247;SDS011;17063;50.892;4.702;2023-07-30T10:58:48;8.03;;;1.80;;
30247;SDS011;17063;50.892;4.702;2023-07-30T11:01:17;3.30;;;1.60;;
30247;SDS011;17063;50.892;4.702;2023-07-30T11:03:47;8.97;;;2.10;;
30247;SDS011;17063;50.892;4.702;2023-07-30T11:06:20;7.87;;;1.50;;
30247;SDS011;17063;50.892;4.702;2023-07-30T11:08:48;5.53;;;1.60;;
30247;SDS011;17063;50.892;4.702;2023-07-30T11:11:15;6.60;;;1.70;;
30247;SDS011;17063;50.892;4.702;2023-07-30T11:13:43;7.10;;;2.43;;
30247;SDS011;17063;50.892;4.702;2023-07-30T11:16:13;7.60;;;1.87;;
30247;SDS011;17063;50.892;4.702;2023-07-30T11:18:41;14.57;;;2.13;;
30247;SDS011;17063;50.892;4.702;2023-07-30T11:21:09;8.50;;;1.77;;
30247;SDS011;17063;50.892;4.702;2023-07-30T11:23:38;9.43;;;2.03;;
30247;SDS011;17063;50.892;4.702;2023-07-30T11:26:06;7.50;;;2.07;;
30247;SDS011;17063;50.892;4.702;2023-07-30T11:28:35;11.33;;;2.03;;
30247;SDS011;17063;50.892;4.702;2023-07-30T11:31:08;7.47;;;1.97;;
30247;SDS011;17063;50.892;4.702;2023-07-30T11:33:36;9.90;;;2.20;;
30247;SDS011;17063;50.892;4.702;2023-07-30T11:36:08;8.10;;;1.93;;
30247;SDS011;17063;50.892;4.702;2023-07-30T11:38:40;12.80;;;2.20;;
30247;SDS011;17063;50.892;4.702;2023-07-30T11:41:08;12.50;;;1.77;;
30247;SDS011;17063;50.892;4.702;2023-07-30T11:43:39;11.50;;;2.00;;
30247;SDS011;17063;50.892;4.702;2023-07-30T11:48:39;7.73;;;1.50;;
30247;SDS011;17063;50.892;4.702;2023-07-30T11:51:17;8.07;;;1.60;;
30247;SDS011;17063;50.892;4.702;2023-07-30T11:54:01;6.47;;;1.83;;
30247;SDS011;17063;50.892;4.702;2023-07-30T11:56:29;10.03;;;1.60;;
30247;SDS011;17063;50.892;4.702;2023-07-30T11:58:59;8.90;;;1.90;;
30247;SDS011;17063;50.892;4.702;2023-07-30T12:01:27;8.40;;;1.67;;
30247;SDS011;17063;50.892;4.702;2023-07-30T12:03:57;7.30;;;1.90;;
30247;SDS011;17063;50.892;4.702;2023-07-30T12:06:24;7.17;;;1.80;;
30247;SDS011;17063;50.892;4.702;2023-07-30T12:09:14;5.30;;;1.33;;
30247;SDS011;17063;50.892;4.702;2023-07-30T12:11:49;3.00;;;1.30;;
30247;SDS011;17063;50.892;4.702;2023-07-30T12:14:28;6.50;;;1.47;;
30247;SDS011;17063;50.892;4.702;2023-07-30T12:16:59;3.43;;;1.10;;
30247;SDS011;17063;50.892;4.702;2023-07-30T12:19:30;5.03;;;1.37;;
30247;SDS011;17063;50.892;4.702;2023-07-30T12:21:57;4.07;;;1.33;;
30247;SDS011;17063;50.892;4.702;2023-07-30T12:24:25;5.70;;;1.40;;
30247;SDS011;17063;50.892;4.702;2023-07-30T12:26:54;4.80;;;1.10;;
30247;SDS011;17063;50.892;4.702;2023-07-30T12:29:21;5.13;;;1.23;;
30247;SDS011;17063;50.892;4.702;2023-07-30T12:31:48;5.83;;;1.27;;
30247;SDS011;17063;50.892;4.702;2023-07-30T12:34:19;4.07;;;1.23;;
30247;SDS011;17063;50.892;4.702;2023-07-30T12:36:46;7.50;;;1.53;;
30247;SDS011;17063;50.892;4.702;2023-07-30T12:39:13;5.40;;;1.60;;
30247;SDS011;17063;50.892;4.702;2023-07-30T12:41:40;7.50;;;1.40;;
30247;SDS011;17063;50.892;4.702;2023-07-30T12:44:07;5.33;;;1.30;;
30247;SDS011;17063;50.892;4.702;2023-07-30T12:46:36;6.30;;;1.20;;
30247;SDS011;17063;50.892;4.702;2023-07-30T12:49:02;7.40;;;1.57;;
30247;SDS011;17063;50.892;4.702;2023-07-30T12:51:32;4.37;;;1.60;;
30247;SDS011;17063;50.892;4.702;2023-07-30T12:53:59;5.57;;;1.63;;
30247;SDS011;17063;50.892;4.702;2023-07-30T12:56:27;6.67;;;1.50;;
30247;SDS011;17063;50.892;4.702;2023-07-30T12:58:54;4.63;;;1.70;;
30247;SDS011;17063;50.892;4.702;2023-07-30T13:01:21;4.30;;;1.40;;
30247;SDS011;17063;50.892;4.702;2023-07-30T13:03:50;5.27;;;1.57;;
30247;SDS011;17063;50.892;4.702;2023-07-30T13:06:19;5.40;;;1.43;;
30247;SDS011;17063;50.892;4.702;2023-07-30T13:08:47;7.57;;;1.83;;
30247;SDS011;17063;50.892;4.702;2023-07-30T13:11:13;6.83;;;1.57;;
30247;SDS011;17063;50.892;4.702;2023-07-30T13:13:40;4.23;;;1.50;;
30247;SDS011;17063;50.892;4.702;2023-07-30T13:16:08;7.13;;;1.60;;
30247;SDS011;17063;50.892;4.702;2023-07-30T13:18:36;4.90;;;1.50;;
30247;SDS011;17063;50.892;4.702;2023-07-30T13:21:03;4.80;;;1.60;;
30247;SDS011;17063;50.892;4.702;2023-07-30T13:23:29;5.20;;;1.50;;
30247;SDS011;17063;50.892;4.702;2023-07-30T13:25:58;7.17;;;1.43;;
30247;SDS011;17063;50.892;4.702;2023-07-30T13:28:24;5.20;;;1.43;;
30247;SDS011;17063;50.892;4.702;2023-07-30T13:30:51;3.67;;;1.60;;
30247;SDS011;17063;50.892;4.702;2023-07-30T13:33:19;4.90;;;1.30;;
30247;SDS011;17063;50.892;4.702;2023-07-30T13:35:46;3.73;;;1.40;;
30247;SDS011;17063;50.892;4.702;2023-07-30T13:38:13;3.10;;;1.03;;
30247;SDS011;17063;50.892;4.702;2023-07-30T13:40:40;7.10;;;1.30;;
30247;SDS011;17063;50.892;4.702;2023-07-30T13:43:07;4.73;;;1.20;;
30247;SDS011;17063;50.892;4.702;2023-07-30T13:45:34;5.23;;;1.57;;
30247;SDS011;17063;50.892;4.702;2023-07-30T13:48:01;2.73;;;1.43;;
30247;SDS011;17063;50.892;4.702;2023-07-30T13:50:28;4.07;;;1.30;;
30247;SDS011;17063;50.892;4.702;2023-07-30T13:52:55;5.77;;;1.60;;
30247;SDS011;17063;50.892;4.702;2023-07-30T13:55:22;3.50;;;1.47;;
30247;SDS011;17063;50.892;4.702;2023-07-30T13:57:49;5.13;;;1.70;;
30247;SDS011;17063;50.892;4.702;2023-07-30T14:00:16;4.70;;;1.67;;
30247;SDS011;17063;50.892;4.702;2023-07-30T14:02:43;5.93;;;1.20;;
30247;SDS011;17063;50.892;4.702;2023-07-30T14:05:10;5.93;;;1.97;;
30247;SDS011;17063;50.892;4.702;2023-07-30T14:07:37;5.30;;;1.60;;
30247;SDS011;17063;50.892;4.702;2023-07-30T14:10:07;5.27;;;1.90;;
30247;SDS011;17063;50.892;4.702;2023-07-30T14:12:34;6.80;;;1.77;;
30247;SDS011;17063;50.892;4.702;2023-07-30T14:15:01;4.20;;;1.40;;
30247;SDS011;17063;50.892;4.702;2023-07-30T14:17:28;7.77;;;1.70;;
30247;SDS011;17063;50.892;4.702;2023-07-30T14:19:55;5.87;;;1.70;;
30247;SDS011;17063;50.892;4.702;2023-07-30T14:22:22;4.77;;;1.57;;
30247;SDS011;17063;50.892;4.702;2023-07-30T14:24:49;5.43;;;1.60;;
30247;SDS011;17063;50.892;4.702;2023-07-30T14:27:17;4.97;;;1.50;;
30247;SDS011;17063;50.892;4.702;2023-07-30T14:29:44;7.07;;;1.53;;
30247;SDS011;17063;50.892;4.702;2023-07-30T14:32:11;8.60;;;1.60;;
30247;SDS011;17063;50.892;4.702;2023-07-30T14:34:37;5.47;;;1.70;;
30247;SDS011;17063;50.892;4.702;2023-07-30T14:37:04;5.37;;;1.50;;
30247;SDS011;17063;50.892;4.702;2023-07-30T14:39:34;9.50;;;1.57;;
30247;SDS011;17063;50.892;4.702;2023-07-30T14:42:01;3.80;;;1.40;;
30247;SDS011;17063;50.892;4.702;2023-07-30T14:44:28;7.13;;;1.60;;
30247;SDS011;17063;50.892;4.702;2023-07-30T14:46:55;4.83;;;1.57;;
30247;SDS011;17063;50.892;4.702;2023-07-30T14:49:23;5.27;;;1.30;;
30247;SDS011;17063;50.892;4.702;2023-07-30T14:51:50;4.63;;;1.50;;
30247;SDS011;17063;50.892;4.702;2023-07-30T14:54:20;4.57;;;1.73;;